Time;durP1;ratioP1;P1;durP2;ratioP2;P2;SDS_P1;SDS_P2;PMS_P1;PMS_P2;Temp;Humidity;BMP_temperature;BMP_pressure;BME280_temperature;BME280_humidity;BME280_pressure;Samples;Min_cycle;Max_cycle;Signal;HPM_P1;HPM_P2
2021/10/25 00:02:16;;;;;;;0.90;0.82;;;5.60;99.90;;;;;;5033554;28;20030;-70
2021/10/25 00:04:42;;;;;;;5.13;1.75;;;5.50;99.90;;;;;;5033755;28;20446;-70
2021/10/25 00:07:08;;;;;;;0.00;0.00;;;5.40;99.90;;;;;;5033336;28;20108;-69
2021/10/25 00:09:34;;;;;;;0.30;0.30;;;5.30;99.90;;;;;;5049074;28;20034;-70
2021/10/25 00:11:59;;;;;;;0.57;0.57;;;5.20;99.90;;;;;;5033639;28;20022;-70
2021/10/25 00:14:25;;;;;;;0.08;0.08;;;5.10;99.90;;;;;;5033319;28;20061;-70
2021/10/25 00:16:51;;;;;;;0.82;0.82;;;5.10;99.90;;;;;;5048867;28;20036;-70
2021/10/25 00:19:18;;;;;;;0.13;0.13;;;5.00;99.90;;;;;;5048470;28;20045;-70
2021/10/25 00:21:44;;;;;;;0.55;0.47;;;5.00;99.90;;;;;;5033192;28;20030;-69
2021/10/25 00:24:10;;;;;;;0.05;0.05;;;5.10;99.90;;;;;;5033131;28;20140;-70
2021/10/25 00:26:35;;;;;;;0.10;0.10;;;5.20;99.90;;;;;;5048691;28;20514;-70
2021/10/25 00:29:03;;;;;;;1.48;0.55;;;5.20;99.90;;;;;;5032967;28;20030;-70
2021/10/25 00:31:29;;;;;;;0.47;0.47;;;5.30;99.90;;;;;;5048339;28;20487;-70
2021/10/25 00:33:55;;;;;;;0.47;0.25;;;5.30;99.90;;;;;;5032843;28;20374;-70
2021/10/25 00:36:22;;;;;;;1.95;0.75;;;5.30;99.90;;;;;;5032834;28;20037;-70
2021/10/25 00:38:47;;;;;;;0.88;0.85;;;5.30;99.90;;;;;;5048147;28;20030;-69
2021/10/25 00:41:14;;;;;;;0.10;0.10;;;5.30;99.90;;;;;;5032841;28;20044;-69
2021/10/25 00:43:39;;;;;;;1.08;1.00;;;5.30;99.90;;;;;;5048277;28;20036;-70
2021/10/25 00:46:10;;;;;;;0.57;0.57;;;5.40;99.90;;;;;;5048250;28;20026;-70
2021/10/25 00:48:36;;;;;;;0.43;0.43;;;5.30;99.90;;;;;;5032975;28;20037;-70
2021/10/25 00:51:05;;;;;;;0.35;0.35;;;5.30;99.90;;;;;;5032449;28;20045;-69
2021/10/25 00:53:31;;;;;;;0.03;0.03;;;5.30;99.90;;;;;;5031455;28;20029;-70
2021/10/25 00:55:58;;;;;;;0.15;0.15;;;5.30;99.90;;;;;;5031443;28;20411;-69
2021/10/25 00:58:25;;;;;;;1.75;1.10;;;5.30;99.90;;;;;;5047920;28;20080;-70
2021/10/25 01:00:51;;;;;;;1.13;0.73;;;5.20;99.90;;;;;;5047801;28;20039;-69
2021/10/25 01:03:17;;;;;;;1.02;0.73;;;5.10;99.90;;;;;;5047881;28;20061;-70
2021/10/25 01:05:43;;;;;;;1.83;1.73;;;5.10;99.90;;;;;;5047861;28;20501;-69
2021/10/25 01:08:09;;;;;;;0.98;0.98;;;5.10;99.90;;;;;;5048015;28;20061;-70
2021/10/25 01:10:36;;;;;;;0.20;0.20;;;5.10;99.90;;;;;;5047673;28;20033;-70
2021/10/25 01:13:02;;;;;;;1.45;1.35;;;5.20;99.90;;;;;;5047656;28;20506;-69
2021/10/25 01:15:28;;;;;;;2.15;1.45;;;5.20;99.90;;;;;;5032226;28;20080;-70
2021/10/25 01:17:59;;;;;;;1.55;1.05;;;5.20;99.90;;;;;;5047695;28;20082;-70
2021/10/25 01:20:29;;;;;;;0.10;0.10;;;5.20;99.90;;;;;;5047485;28;20041;-70
2021/10/25 01:22:56;;;;;;;0.55;0.55;;;5.20;99.90;;;;;;5032188;28;20124;-69
2021/10/25 01:25:23;;;;;;;2.72;0.90;;;5.20;99.90;;;;;;5031173;28;20132;-70
2021/10/25 01:27:50;;;;;;;1.55;0.85;;;5.20;99.90;;;;;;5032131;28;20108;-70
2021/10/25 01:30:17;;;;;;;0.25;0.25;;;5.10;99.90;;;;;;5047601;28;20124;-70
2021/10/25 01:32:45;;;;;;;0.75;0.75;;;5.20;99.90;;;;;;5032334;28;20091;-70
2021/10/25 01:35:11;;;;;;;0.68;0.68;;;5.20;99.90;;;;;;5031987;28;20037;-70
2021/10/25 01:37:37;;;;;;;1.85;1.17;;;5.20;99.90;;;;;;5047460;28;20029;-70
2021/10/25 01:40:06;;;;;;;0.63;0.63;;;5.20;99.90;;;;;;5047284;28;20030;-69
2021/10/25 01:42:32;;;;;;;0.45;0.45;;;5.20;99.90;;;;;;5047389;28;20037;-69
2021/10/25 01:44:58;;;;;;;0.50;0.50;;;5.10;99.90;;;;;;5032140;28;20030;-70
2021/10/25 01:47:24;;;;;;;1.40;1.30;;;5.10;99.90;;;;;;5031928;28;20421;-69
2021/10/25 01:49:50;;;;;;;0.10;0.10;;;5.10;99.90;;;;;;5032365;28;20036;-69
2021/10/25 01:52:16;;;;;;;0.55;0.55;;;5.20;99.90;;;;;;5031735;28;20029;-69
2021/10/25 01:54:43;;;;;;;0.25;0.25;;;5.10;99.90;;;;;;5047407;28;20041;-69
2021/10/25 01:57:09;;;;;;;0.52;0.52;;;5.20;99.90;;;;;;5047465;28;20394;-69
2021/10/25 01:59:36;;;;;;;0.00;0.00;;;5.20;99.90;;;;;;5031865;28;20034;-70
2021/10/25 02:02:02;;;;;;;0.28;0.28;;;5.20;99.90;;;;;;5050280;28;20096;-70
2021/10/25 02:04:29;;;;;;;0.28;0.28;;;5.30;99.90;;;;;;5050893;28;20057;-69
2021/10/25 02:06:55;;;;;;;5.00;1.70;;;5.30;99.90;;;;;;5035762;28;20037;-70
2021/10/25 02:09:21;;;;;;;1.75;1.52;;;5.40;99.90;;;;;;5051319;28;20044;-70
2021/10/25 02:11:47;;;;;;;1.83;0.50;;;5.30;99.90;;;;;;5035678;28;20030;-69
2021/10/25 02:14:14;;;;;;;1.38;1.27;;;5.30;99.90;;;;;;5035740;28;20053;-69
2021/10/25 02:16:40;;;;;;;1.35;1.23;;;5.40;99.90;;;;;;5051128;28;20033;-69
2021/10/25 02:19:06;;;;;;;0.47;0.47;;;5.30;99.90;;;;;;5035452;28;20045;-69
2021/10/25 02:21:32;;;;;;;0.77;0.77;;;5.30;99.90;;;;;;5035225;28;20080;-69
2021/10/25 02:23:58;;;;;;;1.85;1.75;;;5.20;99.90;;;;;;5050916;28;20124;-70
2021/10/25 02:26:23;;;;;;;0.10;0.10;;;5.10;99.90;;;;;;5035587;28;20449;-69
2021/10/25 02:28:50;;;;;;;0.80;0.73;;;5.10;99.90;;;;;;5035471;28;20099;-70
2021/10/25 02:31:17;;;;;;;1.55;1.10;;;5.10;99.90;;;;;;5050591;28;20021;-70
2021/10/25 02:33:43;;;;;;;0.00;0.00;;;5.10;99.90;;;;;;5035166;28;20033;-70
2021/10/25 02:36:09;;;;;;;0.10;0.10;;;5.10;99.90;;;;;;5050879;28;20033;-69
2021/10/25 02:38:37;;;;;;;0.00;0.00;;;5.00;99.90;;;;;;5035249;28;20041;-70
2021/10/25 02:41:09;;;;;;;0.73;0.73;;;5.00;99.90;;;;;;5035436;28;20029;-70
2021/10/25 02:43:35;;;;;;;0.05;0.05;;;4.80;99.90;;;;;;5050489;28;20029;-70
2021/10/25 02:46:01;;;;;;;1.73;1.23;;;4.80;99.90;;;;;;5050465;28;20052;-70
2021/10/25 02:48:29;;;;;;;0.32;0.32;;;4.50;99.90;;;;;;5035130;28;20101;-70
2021/10/25 02:50:56;;;;;;;0.00;0.00;;;4.50;99.90;;;;;;5035014;28;20069;-70
2021/10/25 02:53:23;;;;;;;0.00;0.00;;;4.50;99.90;;;;;;5034923;28;20045;-70
2021/10/25 02:55:49;;;;;;;1.00;1.00;;;4.60;99.90;;;;;;5050168;28;20056;-70
2021/10/25 02:58:16;;;;;;;0.22;0.22;;;4.50;99.90;;;;;;5034588;28;20042;-70
2021/10/25 03:00:42;;;;;;;0.47;0.47;;;4.40;99.90;;;;;;5049986;28;20037;-70
2021/10/25 03:03:09;;;;;;;0.10;0.10;;;4.50;99.90;;;;;;5050070;28;20032;-70
2021/10/25 03:05:35;;;;;;;1.02;0.95;;;4.40;99.90;;;;;;5034559;28;20052;-70
2021/10/25 03:08:00;;;;;;;10.35;1.65;;;4.50;99.90;;;;;;5049869;28;20418;-70
2021/10/25 03:10:27;;;;;;;1.17;1.10;;;4.40;99.90;;;;;;5034673;28;20037;-70
2021/10/25 03:12:53;;;;;;;0.80;0.75;;;4.30;99.90;;;;;;5034123;28;20041;-70
2021/10/25 03:15:19;;;;;;;2.85;2.10;;;4.20;99.90;;;;;;5034720;28;20033;-69
2021/10/25 03:17:45;;;;;;;0.52;0.52;;;4.10;99.90;;;;;;5034562;28;20484;-70
2021/10/25 03:20:13;;;;;;;0.10;0.10;;;4.00;99.90;;;;;;5049803;28;20132;-69
2021/10/25 03:22:42;;;;;;;0.13;0.13;;;3.90;99.90;;;;;;5034615;28;20033;-70
2021/10/25 03:25:09;;;;;;;0.00;0.00;;;3.90;99.90;;;;;;5049941;28;20455;-69
2021/10/25 03:27:35;;;;;;;0.10;0.10;;;4.00;99.90;;;;;;5049522;28;20029;-70
2021/10/25 03:30:02;;;;;;;0.20;0.20;;;4.00;99.90;;;;;;5049532;28;20124;-70
2021/10/25 03:32:28;;;;;;;3.50;3.13;;;3.90;99.90;;;;;;5049579;28;20057;-70
2021/10/25 03:34:54;;;;;;;0.13;0.10;;;3.70;99.90;;;;;;5033978;28;20033;-70
2021/10/25 03:37:22;;;;;;;1.08;1.08;;;3.70;99.90;;;;;;5034309;28;20108;-69
2021/10/25 03:39:50;;;;;;;0.30;0.30;;;3.70;99.90;;;;;;5049229;28;20030;-70
2021/10/25 03:44:56;;;;;;;0.25;0.25;;;3.70;99.90;;;;;;5033977;28;20042;-69
2021/10/25 03:47:27;;;;;;;1.85;0.47;;;3.70;99.90;;;;;;5048367;28;20222;-70
2021/10/25 03:55:43;;;;;;;2.30;2.17;;;3.50;99.90;;;;;;5029998;28;20049;-70
2021/10/25 04:30:35;;;;;;;11.38;3.78;;;3.20;99.90;;;;;;5070485;28;20032;-68
2021/10/25 04:33:02;;;;;;;4.63;1.90;;;3.00;99.90;;;;;;5061286;28;20132;-67
2021/10/25 04:35:29;;;;;;;1.10;1.02;;;2.80;99.90;;;;;;5067900;28;20648;-69
2021/10/25 04:37:55;;;;;;;0.20;0.20;;;2.90;99.90;;;;;;5051811;28;20029;-68
2021/10/25 04:40:21;;;;;;;0.10;0.10;;;3.10;99.90;;;;;;5052729;28;20038;-69
2021/10/25 04:42:47;;;;;;;0.03;0.03;;;2.90;99.90;;;;;;5085402;28;20047;-67
2021/10/25 04:45:14;;;;;;;0.63;0.63;;;2.90;99.90;;;;;;5072566;28;20474;-67
2021/10/25 04:47:40;;;;;;;1.20;1.10;;;2.90;99.90;;;;;;5072568;28;20162;-67
2021/10/25 04:50:06;;;;;;;0.00;0.00;;;2.90;99.90;;;;;;5072767;28;20512;-68
2021/10/25 04:52:32;;;;;;;0.50;0.50;;;3.00;99.90;;;;;;5072646;28;20036;-67
2021/10/25 04:54:58;;;;;;;1.15;1.00;;;3.10;99.90;;;;;;5072724;28;20366;-67
2021/10/25 04:57:24;;;;;;;0.25;0.25;;;3.00;99.90;;;;;;5072193;28;20029;-65
2021/10/25 04:59:50;;;;;;;0.10;0.10;;;2.90;99.90;;;;;;5072258;28;20040;-67
2021/10/25 05:02:16;;;;;;;0.10;0.10;;;2.60;99.90;;;;;;5071255;28;20033;-67
2021/10/25 05:04:41;;;;;;;0.45;0.45;;;2.30;99.90;;;;;;5087662;28;20079;-67
2021/10/25 05:07:07;;;;;;;1.75;1.05;;;2.30;99.90;;;;;;5071406;28;20031;-65
2021/10/25 05:09:33;;;;;;;1.92;1.00;;;2.50;99.90;;;;;;5071064;28;20044;-65
2021/10/25 05:12:00;;;;;;;1.48;1.38;;;2.40;99.90;;;;;;5061922;28;20090;-66
2021/10/25 05:14:26;;;;;;;0.75;0.75;;;2.60;99.90;;;;;;5067563;28;20385;-65
2021/10/25 05:16:52;;;;;;;11.15;1.05;;;2.60;99.90;;;;;;5052216;28;20025;-65
2021/10/25 05:19:17;;;;;;;0.17;0.17;;;2.60;99.90;;;;;;5052220;28;20087;-66
2021/10/25 05:21:43;;;;;;;1.23;1.15;;;2.80;99.90;;;;;;5051996;28;20069;-66
2021/10/25 05:24:09;;;;;;;1.55;1.45;;;3.00;99.90;;;;;;5052307;28;20025;-66
2021/10/25 05:26:35;;;;;;;0.80;0.80;;;3.10;99.90;;;;;;5051843;28;20075;-66
2021/10/25 05:29:01;;;;;;;1.35;1.25;;;3.20;99.90;;;;;;5050439;28;20482;-66
2021/10/25 05:31:27;;;;;;;1.15;1.15;;;3.30;99.90;;;;;;5049123;28;20091;-66
2021/10/25 05:33:53;;;;;;;1.90;1.30;;;3.40;99.90;;;;;;5050727;28;20043;-64
2021/10/25 05:36:19;;;;;;;4.75;3.92;;;3.40;99.90;;;;;;5054147;28;20033;-66
2021/10/25 05:38:45;;;;;;;0.10;0.10;;;3.50;99.90;;;;;;5054881;28;20033;-68
2021/10/25 05:41:13;;;;;;;0.47;0.47;;;3.60;99.90;;;;;;5054023;28;20112;-68
2021/10/25 05:43:40;;;;;;;0.10;0.10;;;3.70;99.90;;;;;;5055908;28;20087;-68
2021/10/25 05:46:06;;;;;;;1.90;1.75;;;3.70;99.90;;;;;;5055802;28;20162;-68
2021/10/25 05:48:32;;;;;;;0.20;0.20;;;3.70;99.90;;;;;;5055724;28;20036;-68
2021/10/25 05:51:01;;;;;;;0.20;0.20;;;3.80;99.90;;;;;;5055850;28;20025;-67
2021/10/25 05:53:27;;;;;;;0.22;0.22;;;3.80;99.90;;;;;;5055527;28;20056;-67
2021/10/25 05:55:53;;;;;;;0.05;0.05;;;3.80;99.90;;;;;;5055624;28;20029;-67
2021/10/25 05:58:21;;;;;;;0.35;0.35;;;3.80;99.90;;;;;;5056067;28;20125;-67
2021/10/25 06:00:56;;;;;;;2.33;2.15;;;3.90;99.90;;;;;;5054621;28;20037;-67
2021/10/25 06:03:28;;;;;;;0.40;0.40;;;3.90;99.90;;;;;;5055658;28;20375;-67
2021/10/25 06:05:54;;;;;;;0.20;0.20;;;3.90;99.90;;;;;;5054407;28;20037;-67
2021/10/25 06:08:20;;;;;;;0.30;0.30;;;4.00;99.90;;;;;;5054503;28;20048;-67
2021/10/25 06:10:47;;;;;;;1.50;1.40;;;3.90;99.90;;;;;;5054344;28;20033;-67
2021/10/25 06:13:27;;;;;;;0.43;0.43;;;4.00;99.90;;;;;;5055515;28;20570;-67
2021/10/25 06:15:58;;;;;;;0.10;0.10;;;4.00;99.90;;;;;;5054560;28;20037;-67
2021/10/25 06:18:25;;;;;;;0.10;0.10;;;4.00;99.90;;;;;;5055712;28;20462;-67
2021/10/25 06:20:51;;;;;;;1.10;1.10;;;4.10;99.90;;;;;;5054956;28;20048;-67
2021/10/25 06:23:17;;;;;;;0.65;0.43;;;4.10;99.90;;;;;;5055603;28;20494;-67
2021/10/25 06:25:50;;;;;;;0.45;0.45;;;4.10;99.90;;;;;;5055312;28;20033;-67
2021/10/25 06:28:16;;;;;;;0.75;0.73;;;4.10;99.90;;;;;;5054035;28;20025;-67
2021/10/25 06:30:42;;;;;;;0.45;0.45;;;4.10;99.90;;;;;;5053977;28;20040;-68
2021/10/25 06:33:12;;;;;;;0.28;0.28;;;4.20;99.90;;;;;;5055690;28;20041;-67
2021/10/25 06:35:39;;;;;;;0.10;0.10;;;4.20;99.90;;;;;;5055291;28;20087;-67
2021/10/25 06:38:11;;;;;;;3.33;2.72;;;4.20;99.90;;;;;;5054047;28;20037;-66
2021/10/25 06:40:38;;;;;;;2.85;2.60;;;4.30;99.90;;;;;;5054919;28;20029;-67
2021/10/25 06:43:05;;;;;;;0.98;0.80;;;4.30;99.90;;;;;;5053928;28;20057;-67
2021/10/25 06:45:31;;;;;;;0.50;0.50;;;4.30;99.90;;;;;;5054729;28;20478;-67
2021/10/25 06:47:57;;;;;;;0.10;0.10;;;4.30;99.90;;;;;;5052717;28;20064;-67
2021/10/25 06:50:26;;;;;;;0.35;0.35;;;4.50;99.90;;;;;;5055075;28;20469;-67
2021/10/25 06:53:06;;;;;;;2.17;1.98;;;4.40;99.90;;;;;;5054610;28;20030;-67
2021/10/25 06:55:34;;;;;;;0.10;0.10;;;4.40;99.90;;;;;;5054813;28;20064;-67
2021/10/25 06:58:00;;;;;;;0.30;0.30;;;4.50;99.90;;;;;;5053489;28;20142;-67
2021/10/25 07:00:27;;;;;;;1.05;0.77;;;4.50;99.90;;;;;;5054825;28;20029;-67
2021/10/25 07:02:53;;;;;;;0.35;0.35;;;4.50;99.90;;;;;;5054442;28;20113;-67
2021/10/25 07:05:18;;;;;;;0.10;0.10;;;4.50;99.90;;;;;;5054352;28;20493;-67
2021/10/25 07:07:45;;;;;;;0.20;0.20;;;4.60;99.90;;;;;;5052858;28;20634;-67
2021/10/25 07:10:11;;;;;;;0.03;0.03;;;4.60;99.90;;;;;;5053211;28;20405;-67
2021/10/25 07:12:37;;;;;;;1.42;1.33;;;4.80;99.90;;;;;;5054538;28;20033;-67
2021/10/25 07:15:04;;;;;;;1.77;0.73;;;4.80;99.90;;;;;;5054553;28;20132;-67
2021/10/25 07:59:39;;;;;;;0.25;0.25;;;5.10;99.90;;;;;;5054200;28;20025;-67
2021/10/25 08:06:17;;;;;;;0.10;0.10;;;5.70;99.90;;;;;;5053327;28;20655;-67
2021/10/25 08:08:52;;;;;;;0.88;0.85;;;5.70;99.90;;;;;;5051915;28;20509;-67
2021/10/25 08:11:20;;;;;;;0.93;0.73;;;5.90;99.90;;;;;;5051943;28;20039;-67
2021/10/25 08:13:48;;;;;;;0.08;0.08;;;6.00;99.90;;;;;;5053193;28;20474;-67
2021/10/25 08:16:23;;;;;;;1.05;1.05;;;6.00;99.90;;;;;;5053050;28;20036;-67
2021/10/25 08:21:20;;;;;;;0.10;0.10;;;6.30;99.90;;;;;;5051634;28;20202;-67
2021/10/25 08:23:48;;;;;;;0.32;0.32;;;6.20;99.90;;;;;;5053260;28;20028;-67
2021/10/25 08:26:14;;;;;;;0.73;0.73;;;6.40;99.90;;;;;;5052704;28;20128;-67
2021/10/25 08:28:39;;;;;;;0.30;0.30;;;6.60;99.90;;;;;;5052741;28;20180;-67
2021/10/25 08:31:08;;;;;;;32.50;1.40;;;6.70;99.90;;;;;;5052688;28;20033;-67
2021/10/25 08:36:23;;;;;;;0.20;0.20;;;6.90;99.90;;;;;;5041151;28;20041;-67
2021/10/25 08:41:34;;;;;;;1.23;1.15;;;7.20;99.90;;;;;;5052405;28;20052;-67
2021/10/25 08:44:05;;;;;;;0.90;0.65;;;7.30;99.90;;;;;;5051293;28;20036;-67
2021/10/25 08:46:31;;;;;;;0.10;0.10;;;7.50;99.90;;;;;;5052361;28;20041;-67
2021/10/25 08:48:57;;;;;;;0.75;0.75;;;7.60;99.90;;;;;;5052519;28;20036;-67
2021/10/25 08:51:24;;;;;;;1.40;1.30;;;7.80;99.90;;;;;;5052579;28;20029;-66
2021/10/25 08:53:51;;;;;;;0.47;0.47;;;7.80;99.90;;;;;;5052147;28;20059;-67
2021/10/25 08:56:18;;;;;;;1.20;0.70;;;7.90;99.90;;;;;;5067711;28;20029;-66
2021/10/25 08:58:49;;;;;;;0.45;0.45;;;8.00;99.90;;;;;;5050810;28;20091;-67
2021/10/25 09:01:32;;;;;;;0.47;0.47;;;8.20;99.90;;;;;;5051431;28;20395;-67
2021/10/25 09:04:18;;;;;;;0.77;0.77;;;8.40;99.90;;;;;;5052310;28;20040;-67
2021/10/25 09:06:57;;;;;;;0.10;0.10;;;8.50;99.90;;;;;;5051318;28;20025;-67
2021/10/25 09:09:23;;;;;;;3.30;1.35;;;8.60;99.90;;;;;;5052169;28;20429;-66
2021/10/25 09:12:08;;;;;;;1.17;1.05;;;8.60;99.90;;;;;;5051429;28;20029;-66
2021/10/25 09:14:37;;;;;;;0.10;0.10;;;8.70;99.90;;;;;;5052239;28;20020;-67
2021/10/25 09:17:07;;;;;;;0.43;0.43;;;8.80;99.90;;;;;;5050738;28;20052;-67
2021/10/25 09:19:36;;;;;;;3.08;1.25;;;8.90;99.90;;;;;;5050544;28;20136;-67
2021/10/25 09:22:16;;;;;;;0.52;0.52;;;8.90;99.90;;;;;;5050860;28;20505;-67
2021/10/25 09:24:57;;;;;;;1.13;0.80;;;9.00;99.90;;;;;;5067483;28;20123;-67
2021/10/25 09:27:30;;;;;;;;;;;9.30;99.90;;;;;;5052421;28;20509;-67
2021/10/25 09:30:04;;;;;;;2.72;0.82;;;9.60;99.90;;;;;;5067299;28;19908;-67
2021/10/25 09:32:32;;;;;;;0.80;0.80;;;9.80;99.90;;;;;;5052066;28;20068;-67
2021/10/25 09:35:04;;;;;;;0.80;0.77;;;9.90;99.90;;;;;;5051618;28;20033;-67
2021/10/25 09:37:39;;;;;;;0.52;0.52;;;10.10;99.90;;;;;;5051047;28;20132;-67
2021/10/25 09:40:17;;;;;;;0.52;0.50;;;10.30;99.90;;;;;;5051854;28;20032;-66
2021/10/25 09:43:08;;;;;;;0.10;0.10;;;10.50;99.90;;;;;;5052148;28;20422;-67
2021/10/25 09:46:03;;;;;;;0.77;0.77;;;10.70;99.90;;;;;;5050915;28;20025;-67
2021/10/25 09:51:12;;;;;;;0.60;0.60;;;11.00;99.90;;;;;;5052097;28;20020;-67
2021/10/25 09:53:45;;;;;;;0.10;0.10;;;11.40;99.90;;;;;;5050636;28;20095;-67
2021/10/25 09:56:12;;;;;;;0.52;0.52;;;11.60;99.90;;;;;;5051894;28;20091;-68
2021/10/25 09:58:53;;;;;;;0.60;0.40;;;11.60;99.90;;;;;;5050843;28;20028;-68
2021/10/25 10:01:25;;;;;;;0.03;0.03;;;11.70;99.90;;;;;;5052601;28;20036;-68
2021/10/25 10:03:52;;;;;;;2.78;2.08;;;12.20;99.90;;;;;;5050522;28;20033;-67
2021/10/25 10:06:20;;;;;;;0.30;0.30;;;12.50;99.90;;;;;;5051978;28;20061;-67
2021/10/25 10:08:47;;;;;;;0.05;0.05;;;13.00;99.90;;;;;;5050494;28;20029;-67
2021/10/25 10:11:15;;;;;;;0.20;0.20;;;13.20;99.90;;;;;;5050777;28;20090;-67
2021/10/25 10:13:42;;;;;;;3.42;1.67;;;13.00;99.90;;;;;;5051456;28;20513;-67
2021/10/25 10:16:10;;;;;;;0.20;0.20;;;13.20;99.90;;;;;;5051712;28;20037;-67
2021/10/25 10:18:41;;;;;;;0.20;0.20;;;13.30;99.90;;;;;;5051809;28;20421;-67
2021/10/25 10:21:08;;;;;;;0.30;0.20;;;13.40;99.90;;;;;;5050214;28;20619;-67
2021/10/25 10:23:35;;;;;;;1.35;1.27;;;13.70;99.90;;;;;;5054149;28;20055;-67
2021/10/25 10:26:05;;;;;;;0.00;0.00;;;13.80;99.90;;;;;;5054246;28;20553;-67
2021/10/25 10:28:41;;;;;;;0.00;0.00;;;13.80;99.90;;;;;;5054121;28;20033;-67
2021/10/25 10:31:24;;;;;;;2.47;0.50;;;14.10;99.90;;;;;;5055103;28;20037;-67
2021/10/25 10:33:59;;;;;;;0.00;0.00;;;14.60;99.90;;;;;;5054985;28;20029;-67
2021/10/25 10:36:31;;;;;;;0.50;0.50;;;16.20;99.90;;;;;;5053857;28;20474;-67
2021/10/25 10:39:10;;;;;;;0.20;0.20;;;17.10;99.90;;;;;;5054919;28;20032;-67
2021/10/25 10:41:50;;;;;;;0.40;0.40;;;18.10;97.60;;;;;;5053734;28;20040;-67
2021/10/25 10:44:19;;;;;;;0.75;0.60;;;17.40;97.90;;;;;;5054828;28;20037;-67
2021/10/25 10:46:55;;;;;;;0.47;0.38;;;17.20;97.20;;;;;;5070254;28;20397;-67
2021/10/25 10:49:50;;;;;;;1.45;0.85;;;15.40;99.80;;;;;;5054758;28;20116;-67
2021/10/25 10:55:07;;;;;;;0.17;0.17;;;15.90;99.90;;;;;;5053408;28;20033;-67
2021/10/25 11:00:29;;;;;;;2.38;0.28;;;17.20;98.60;;;;;;5054520;28;20037;-67
2021/10/25 11:02:59;;;;;;;;;;;18.30;96.40;;;;;;5054711;28;20059;-67
2021/10/25 11:06:23;;;;;;;0.20;0.20;;;18.00;96.30;;;;;;5070064;28;19909;-67
2021/10/25 11:08:49;;;;;;;0.47;0.47;;;18.90;94.30;;;;;;5051240;28;20037;-67
2021/10/25 11:11:21;;;;;;;2.42;0.70;;;19.00;93.90;;;;;;5054657;28;20017;-67
2021/10/25 11:13:56;;;;;;;0.65;0.65;;;18.80;93.70;;;;;;5054480;28;20029;-67
2021/10/25 11:19:03;;;;;;;1.17;1.08;;;19.70;92.10;;;;;;5054179;28;20036;-67
2021/10/25 11:21:51;;;;;;;1.23;1.13;;;19.70;92.10;;;;;;5053070;28;20460;-68
2021/10/25 11:24:20;;;;;;;0.52;0.52;;;19.10;92.20;;;;;;5053062;28;20028;-68
2021/10/25 11:26:58;;;;;;;0.10;0.10;;;19.40;92.80;;;;;;5053986;28;20029;-68
2021/10/25 11:29:24;;;;;;;0.57;0.47;;;20.80;90.80;;;;;;5054533;28;20087;-68
2021/10/25 11:32:06;;;;;;;0.25;0.25;;;21.20;88.50;;;;;;5053657;28;20037;-68
2021/10/25 11:34:44;;;;;;;0.25;0.25;;;19.40;91.00;;;;;;5053865;28;20370;-68
2021/10/25 11:37:19;;;;;;;1.92;1.77;;;19.00;92.20;;;;;;5052686;28;20082;-68
2021/10/25 11:40:11;;;;;;;0.40;0.32;;;20.60;90.40;;;;;;5052670;28;20025;-68
2021/10/25 11:42:40;;;;;;;1.40;0.60;;;22.00;86.40;;;;;;5052726;28;20051;-68
2021/10/25 11:45:11;;;;;;;1.10;1.00;;;22.20;84.70;;;;;;5052318;28;20415;-68
2021/10/25 11:47:43;;;;;;;0.63;0.63;;;21.70;81.10;;;;;;5053859;28;20031;-68
2021/10/25 11:50:15;;;;;;;0.30;0.30;;;19.60;89.00;;;;;;5053515;28;20033;-68
2021/10/25 11:52:48;;;;;;;0.10;0.05;;;19.10;90.60;;;;;;5053798;28;20173;-68
2021/10/25 11:55:24;;;;;;;19.20;0.68;;;19.70;90.30;;;;;;5053607;28;20091;-68
2021/10/25 11:57:53;;;;;;;0.55;0.30;;;19.90;87.00;;;;;;5052539;28;20033;-68
2021/10/25 12:00:30;;;;;;;1.25;0.55;;;21.20;86.00;;;;;;5052249;28;20029;-68
2021/10/25 12:03:08;;;;;;;0.43;0.43;;;22.50;80.60;;;;;;5052435;28;20072;-69
2021/10/25 12:05:34;;;;;;;1.40;1.15;;;23.30;78.10;;;;;;5052135;28;20057;-68
2021/10/25 12:08:00;;;;;;;0.40;0.28;;;22.80;78.20;;;;;;5053107;28;20500;-68
2021/10/25 12:10:29;;;;;;;0.00;0.00;;;22.80;78.10;;;;;;5053370;28;20025;-68
2021/10/25 12:13:05;;;;;;;0.15;0.15;;;22.40;77.40;;;;;;5052780;28;20029;-68
2021/10/25 12:15:35;;;;;;;1.08;0.70;;;22.60;77.10;;;;;;5052911;28;20032;-68
2021/10/25 12:18:04;;;;;;;2.83;1.30;;;22.10;77.60;;;;;;5052962;28;20033;-68
2021/10/25 12:20:41;;;;;;;0.00;0.00;;;21.40;79.50;;;;;;5052662;28;20397;-68
2021/10/25 12:23:17;;;;;;;0.03;0.03;;;22.00;77.60;;;;;;5052747;28;20036;-68
2021/10/25 12:25:45;;;;;;;1.90;0.35;;;21.70;78.10;;;;;;5051713;28;20128;-68
2021/10/25 12:28:20;;;;;;;1.33;0.77;;;20.40;83.50;;;;;;5052832;28;20149;-68
2021/10/25 12:31:08;;;;;;;0.00;0.00;;;20.40;82.90;;;;;;5051727;28;20124;-68
2021/10/25 12:33:35;;;;;;;0.70;0.50;;;20.10;82.60;;;;;;5052765;28;20076;-68
2021/10/25 12:36:11;;;;;;;0.00;0.00;;;18.50;85.90;;;;;;5051403;28;20112;-68
2021/10/25 12:38:46;;;;;;;0.10;0.10;;;18.10;89.90;;;;;;5053139;28;20032;-68
2021/10/25 12:41:12;;;;;;;0.15;0.15;;;18.30;89.50;;;;;;5052747;28;20056;-68
2021/10/25 12:43:53;;;;;;;0.40;0.40;;;18.50;89.90;;;;;;5051406;28;20064;-68
2021/10/25 12:46:22;;;;;;;0.00;0.00;;;18.30;88.00;;;;;;5050547;28;20040;-68
2021/10/25 12:48:56;;;;;;;0.17;0.17;;;17.80;90.50;;;;;;5051495;28;20036;-69
2021/10/25 12:51:33;;;;;;;3.00;0.55;;;17.60;90.90;;;;;;5051468;28;20071;-68
2021/10/25 12:54:11;;;;;;;0.57;0.57;;;17.60;91.40;;;;;;5051593;28;20033;-68
2021/10/25 12:56:38;;;;;;;0.00;0.00;;;17.90;91.00;;;;;;5051065;28;20117;-68
2021/10/25 12:59:11;;;;;;;0.10;0.10;;;18.70;90.20;;;;;;5052549;28;20103;-68
2021/10/25 13:01:50;;;;;;;0.28;0.28;;;19.10;89.00;;;;;;5051442;28;20044;-68
2021/10/25 13:04:19;;;;;;;0.20;0.20;;;19.40;90.50;;;;;;5052142;28;20381;-68
2021/10/25 13:06:46;;;;;;;0.82;0.80;;;20.00;87.10;;;;;;5068033;28;20029;-68
2021/10/25 13:09:11;;;;;;;1.95;0.70;;;19.80;87.90;;;;;;5052262;28;20025;-68
2021/10/25 13:11:38;;;;;;;0.00;0.00;;;20.00;86.90;;;;;;5052288;28;20490;-68
2021/10/25 13:14:07;;;;;;;0.52;0.43;;;19.90;87.20;;;;;;5050927;28;20032;-68
2021/10/25 13:16:43;;;;;;;0.52;0.50;;;19.50;87.20;;;;;;5050780;28;20036;-68
2021/10/25 13:19:18;;;;;;;0.70;0.50;;;19.60;88.70;;;;;;5052218;28;20370;-69
2021/10/25 13:21:45;;;;;;;0.00;0.00;;;19.70;87.80;;;;;;5052352;28;20500;-68
2021/10/25 13:24:11;;;;;;;0.00;0.00;;;19.50;89.00;;;;;;5050732;28;20545;-68
2021/10/25 13:26:38;;;;;;;0.10;0.10;;;19.00;90.30;;;;;;5050749;28;20056;-68
2021/10/25 13:29:08;;;;;;;0.30;0.30;;;18.80;90.80;;;;;;5050621;28;20493;-68
2021/10/25 13:31:35;;;;;;;0.50;0.50;;;18.70;90.40;;;;;;5052244;28;20473;-68
2021/10/25 13:34:01;;;;;;;0.00;0.00;;;18.90;90.50;;;;;;5052142;28;20478;-67
2021/10/25 13:36:27;;;;;;;0.00;0.00;;;19.00;90.60;;;;;;5052177;28;20032;-68
2021/10/25 13:38:52;;;;;;;0.38;0.38;;;19.40;90.10;;;;;;5052120;28;20028;-68
2021/10/25 13:41:20;;;;;;;0.45;0.30;;;19.30;90.00;;;;;;5050320;28;20064;-68
2021/10/25 13:43:46;;;;;;;0.03;0.03;;;19.00;90.50;;;;;;5051927;28;20037;-68
2021/10/25 13:46:13;;;;;;;0.00;0.00;;;19.50;89.80;;;;;;5052291;28;20033;-68
2021/10/25 13:48:39;;;;;;;0.00;0.00;;;19.40;90.10;;;;;;5050868;28;20040;-68
2021/10/25 13:51:05;;;;;;;1.20;0.43;;;18.80;90.70;;;;;;5051523;28;20033;-68
2021/10/25 13:53:31;;;;;;;0.00;0.00;;;18.60;91.40;;;;;;5051559;28;20122;-68
2021/10/25 13:55:59;;;;;;;0.10;0.10;;;18.80;90.70;;;;;;5051770;28;20037;-67
2021/10/25 13:58:25;;;;;;;0.50;0.50;;;18.30;91.20;;;;;;5055460;28;20028;-68
2021/10/25 14:00:51;;;;;;;0.00;0.00;;;18.60;91.30;;;;;;5054458;28;20133;-68
2021/10/25 14:03:17;;;;;;;0.60;0.50;;;18.90;90.80;;;;;;5054467;28;20477;-68
2021/10/25 14:05:43;;;;;;;0.32;0.32;;;19.10;90.60;;;;;;5055614;28;20072;-68
2021/10/25 14:08:09;;;;;;;0.13;0.13;;;19.00;90.80;;;;;;5054290;28;20074;-68
2021/10/25 14:10:41;;;;;;;1.30;1.08;;;19.20;90.60;;;;;;5055848;28;20040;-68
2021/10/25 14:13:27;;;;;;;1.35;1.25;;;19.50;90.30;;;;;;5054292;28;20029;-68
2021/10/25 14:18:50;;;;;;;0.32;0.32;;;18.60;92.00;;;;;;5054180;28;20451;-68
2021/10/25 14:21:18;;;;;;;0.10;0.10;;;18.90;91.80;;;;;;5055054;28;20048;-68
2021/10/25 14:23:46;;;;;;;0.55;0.55;;;19.20;90.60;;;;;;5055245;28;20389;-67
2021/10/25 14:26:14;;;;;;;0.13;0.13;;;18.40;90.80;;;;;;5053996;28;20170;-67
2021/10/25 14:28:41;;;;;;;0.00;0.00;;;18.10;91.80;;;;;;5054006;28;20036;-68
2021/10/25 14:31:12;;;;;;;1.13;1.05;;;18.70;91.00;;;;;;5053737;28;20028;-67
2021/10/25 14:33:39;;;;;;;0.28;0.28;;;18.60;91.10;;;;;;5054313;28;20041;-68
2021/10/25 14:36:05;;;;;;;0.43;0.38;;;19.10;90.70;;;;;;5055302;28;20056;-67
2021/10/25 14:44:00;;;;;;;0.50;0.45;;;18.60;91.30;;;;;;5053975;28;20025;-68
2021/10/25 14:57:25;;;;;;;0.15;0.10;;;18.10;91.30;;;;;;5053614;28;20037;-67
2021/10/25 14:59:53;;;;;;;0.75;0.60;;;18.30;91.60;;;;;;5054574;28;20037;-67
2021/10/25 15:02:20;;;;;;;0.22;0.22;;;18.60;91.20;;;;;;5054420;28;20045;-67
2021/10/25 15:04:47;;;;;;;0.10;0.10;;;18.70;91.00;;;;;;5054676;28;20033;-67
2021/10/25 15:07:21;;;;;;;0.05;0.05;;;18.60;90.80;;;;;;5053456;28;20543;-68
2021/10/25 15:09:53;;;;;;;0.20;0.20;;;18.50;91.60;;;;;;5053734;28;20040;-68